Fremont, Wisconsin
Current Conditions -  °F | °C
As of 8:35 AM on Thursday 23 Oct 2014 (Local Time) from KPCZ Reporting Station
Haze Haze  
Wind Chill: 36°   Ceiling: Unl
Heat Index: 39°   Visibility: 4mi
Dew Point: 38°   Wind: 5mph
Humidity: 96%   Direction: 130°SE
Pressure: 30.14"   Gusts: NA
Location:  44.26°N, 88.86°W
Report Text: KPCZ 231335Z AUTO 13004KT 4SM BR CLR 04/04 A3014 RMK AO2 T00410035
Loading
Personal Weather Stations






























Interactive Weather Map
Tropical Storm Tracking
New forecast layout! Learn more

10-Day Weather Forecast

Advertisements
Track Severe Weather on mobile